sensor_id;sensor_type;location;lat;lon;timestamp;pressure;altitude;pressure_sealevel;temperature
63220;BMP180;49320;52.512;13.448;2023-09-12T00:02:16;100777.00;;;27.10
63220;BMP180;49320;52.512;13.448;2023-09-12T00:04:43;100783.00;;;27.10
63220;BMP180;49320;52.512;13.448;2023-09-12T00:07:10;100782.00;;;27.00
63220;BMP180;49320;52.512;13.448;2023-09-12T00:09:37;100788.00;;;27.00
63220;BMP180;49320;52.512;13.448;2023-09-12T00:12:04;100777.00;;;27.00
63220;BMP180;49320;52.512;13.448;2023-09-12T00:14:31;100773.00;;;27.00
63220;BMP180;49320;52.512;13.448;2023-09-12T00:16:59;100786.00;;;27.00
63220;BMP180;49320;52.512;13.448;2023-09-12T00:19:25;100784.00;;;27.00
63220;BMP180;49320;52.512;13.448;2023-09-12T00:21:53;100783.00;;;27.00
63220;BMP180;49320;52.512;13.448;2023-09-12T00:24:20;100789.00;;;26.90
63220;BMP180;49320;52.512;13.448;2023-09-12T00:26:47;100777.00;;;26.90
63220;BMP180;49320;52.512;13.448;2023-09-12T00:29:14;100782.00;;;26.90
63220;BMP180;49320;52.512;13.448;2023-09-12T00:31:41;100784.00;;;26.90
63220;BMP180;49320;52.512;13.448;2023-09-12T00:34:08;100782.00;;;26.90
63220;BMP180;49320;52.512;13.448;2023-09-12T00:36:36;100786.00;;;26.90
63220;BMP180;49320;52.512;13.448;2023-09-12T00:39:05;100784.00;;;26.90
63220;BMP180;49320;52.512;13.448;2023-09-12T00:41:32;100786.00;;;26.80
63220;BMP180;49320;52.512;13.448;2023-09-12T00:43:59;100788.00;;;26.80
63220;BMP180;49320;52.512;13.448;2023-09-12T00:46:27;100789.00;;;26.80
63220;BMP180;49320;52.512;13.448;2023-09-12T00:48:57;100791.00;;;26.80
63220;BMP180;49320;52.512;13.448;2023-09-12T00:51:27;100784.00;;;26.80
63220;BMP180;49320;52.512;13.448;2023-09-12T00:53:54;100783.00;;;26.80
63220;BMP180;49320;52.512;13.448;2023-09-12T00:56:22;100787.00;;;26.80
63220;BMP180;49320;52.512;13.448;2023-09-12T00:58:49;100787.00;;;26.70
63220;BMP180;49320;52.512;13.448;2023-09-12T01:01:20;100780.00;;;26.70
63220;BMP180;49320;52.512;13.448;2023-09-12T01:03:48;100781.00;;;26.70
63220;BMP180;49320;52.512;13.448;2023-09-12T01:06:19;100779.00;;;26.70
63220;BMP180;49320;52.512;13.448;2023-09-12T01:08:47;100790.00;;;26.70
63220;BMP180;49320;52.512;13.448;2023-09-12T01:11:14;100784.00;;;26.70
63220;BMP180;49320;52.512;13.448;2023-09-12T01:13:41;100782.00;;;26.70
63220;BMP180;49320;52.512;13.448;2023-09-12T01:16:08;100772.00;;;26.60
63220;BMP180;49320;52.512;13.448;2023-09-12T01:18:36;100779.00;;;26.60
63220;BMP180;49320;52.512;13.448;2023-09-12T01:21:49;100783.00;;;26.60
63220;BMP180;49320;52.512;13.448;2023-09-12T01:25:00;100775.00;;;26.60
63220;BMP180;49320;52.512;13.448;2023-09-12T01:27:37;100779.00;;;26.50
63220;BMP180;49320;52.512;13.448;2023-09-12T01:30:07;100777.00;;;26.50
63220;BMP180;49320;52.512;13.448;2023-09-12T01:32:36;100774.00;;;26.50
63220;BMP180;49320;52.512;13.448;2023-09-12T01:35:03;100773.00;;;26.50
63220;BMP180;49320;52.512;13.448;2023-09-12T01:37:31;100774.00;;;26.50
63220;BMP180;49320;52.512;13.448;2023-09-12T01:39:59;100787.00;;;26.40
63220;BMP180;49320;52.512;13.448;2023-09-12T01:42:35;100779.00;;;26.40
63220;BMP180;49320;52.512;13.448;2023-09-12T01:45:04;100769.00;;;26.40
63220;BMP180;49320;52.512;13.448;2023-09-12T01:47:34;100768.00;;;26.30
63220;BMP180;49320;52.512;13.448;2023-09-12T01:50:03;100774.00;;;26.30
63220;BMP180;49320;52.512;13.448;2023-09-12T01:52:31;100773.00;;;26.30
63220;BMP180;49320;52.512;13.448;2023-09-12T01:54:59;100774.00;;;26.30
63220;BMP180;49320;52.512;13.448;2023-09-12T01:57:27;100773.00;;;26.30
63220;BMP180;49320;52.512;13.448;2023-09-12T01:59:54;100768.00;;;26.20
63220;BMP180;49320;52.512;13.448;2023-09-12T02:02:21;100771.00;;;26.20
63220;BMP180;49320;52.512;13.448;2023-09-12T02:05:15;100777.00;;;26.30
63220;BMP180;49320;52.512;13.448;2023-09-12T02:07:46;100768.00;;;26.20
63220;BMP180;49320;52.512;13.448;2023-09-12T02:10:14;100771.00;;;26.20
63220;BMP180;49320;52.512;13.448;2023-09-12T02:12:41;100777.00;;;26.20
63220;BMP180;49320;52.512;13.448;2023-09-12T02:15:09;100759.00;;;26.20
63220;BMP180;49320;52.512;13.448;2023-09-12T02:17:36;100761.00;;;26.20
63220;BMP180;49320;52.512;13.448;2023-09-12T02:20:09;100757.00;;;26.10
63220;BMP180;49320;52.512;13.448;2023-09-12T02:22:37;100759.00;;;26.10
63220;BMP180;49320;52.512;13.448;2023-09-12T02:25:05;100756.00;;;26.10
63220;BMP180;49320;52.512;13.448;2023-09-12T02:27:33;100757.00;;;26.10
63220;BMP180;49320;52.512;13.448;2023-09-12T02:30:00;100760.00;;;26.10
63220;BMP180;49320;52.512;13.448;2023-09-12T02:32:27;100759.00;;;26.10
63220;BMP180;49320;52.512;13.448;2023-09-12T02:34:54;100761.00;;;26.10
63220;BMP180;49320;52.512;13.448;2023-09-12T02:37:23;100753.00;;;26.10
63220;BMP180;49320;52.512;13.448;2023-09-12T02:39:51;100755.00;;;26.10
63220;BMP180;49320;52.512;13.448;2023-09-12T02:42:17;100756.00;;;26.10
63220;BMP180;49320;52.512;13.448;2023-09-12T02:44:46;100763.00;;;26.00
63220;BMP180;49320;52.512;13.448;2023-09-12T02:47:13;100752.00;;;26.00
63220;BMP180;49320;52.512;13.448;2023-09-12T02:49:39;100756.00;;;26.00
63220;BMP180;49320;52.512;13.448;2023-09-12T02:52:07;100742.00;;;26.00
63220;BMP180;49320;52.512;13.448;2023-09-12T02:54:33;100749.00;;;26.00
63220;BMP180;49320;52.512;13.448;2023-09-12T02:57:01;100748.00;;;26.00
63220;BMP180;49320;52.512;13.448;2023-09-12T02:59:29;100741.00;;;25.90
63220;BMP180;49320;52.512;13.448;2023-09-12T03:01:56;100737.00;;;25.90
63220;BMP180;49320;52.512;13.448;2023-09-12T03:04:25;100731.00;;;25.90
63220;BMP180;49320;52.512;13.448;2023-09-12T03:06:55;100743.00;;;25.90
63220;BMP180;49320;52.512;13.448;2023-09-12T03:09:22;100738.00;;;25.90
63220;BMP180;49320;52.512;13.448;2023-09-12T03:11:49;100744.00;;;25.90
63220;BMP180;49320;52.512;13.448;2023-09-12T03:14:17;100741.00;;;25.80
63220;BMP180;49320;52.512;13.448;2023-09-12T03:16:44;100744.00;;;25.80
63220;BMP180;49320;52.512;13.448;2023-09-12T03:19:11;100734.00;;;25.80
63220;BMP180;49320;52.512;13.448;2023-09-12T03:21:38;100737.00;;;25.80
63220;BMP180;49320;52.512;13.448;2023-09-12T03:24:06;100739.00;;;25.80
63220;BMP180;49320;52.512;13.448;2023-09-12T03:26:35;100724.00;;;25.70
63220;BMP180;49320;52.512;13.448;2023-09-12T03:29:03;100729.00;;;25.70
63220;BMP180;49320;52.512;13.448;2023-09-12T03:31:31;100732.00;;;25.70
63220;BMP180;49320;52.512;13.448;2023-09-12T03:33:58;100731.00;;;25.70
63220;BMP180;49320;52.512;13.448;2023-09-12T03:36:25;100735.00;;;25.70
63220;BMP180;49320;52.512;13.448;2023-09-12T03:38:52;100736.00;;;25.70
63220;BMP180;49320;52.512;13.448;2023-09-12T03:41:20;100748.00;;;25.70
63220;BMP180;49320;52.512;13.448;2023-09-12T03:43:54;100735.00;;;25.60
63220;BMP180;49320;52.512;13.448;2023-09-12T03:46:22;100742.00;;;25.60
63220;BMP180;49320;52.512;13.448;2023-09-12T03:48:49;100743.00;;;25.60
63220;BMP180;49320;52.512;13.448;2023-09-12T03:51:16;100736.00;;;25.60
63220;BMP180;49320;52.512;13.448;2023-09-12T03:53:43;100750.00;;;25.60
63220;BMP180;49320;52.512;13.448;2023-09-12T03:56:11;100753.00;;;25.60
63220;BMP180;49320;52.512;13.448;2023-09-12T03:58:39;100748.00;;;25.50
63220;BMP180;49320;52.512;13.448;2023-09-12T04:01:07;100760.00;;;25.50
63220;BMP180;49320;52.512;13.448;2023-09-12T04:03:34;100763.00;;;25.50
63220;BMP180;49320;52.512;13.448;2023-09-12T04:06:01;100757.00;;;25.50
63220;BMP180;49320;52.512;13.448;2023-09-12T04:08:28;100758.00;;;25.50
63220;BMP180;49320;52.512;13.448;2023-09-12T04:10:55;100755.00;;;25.50
63220;BMP180;49320;52.512;13.448;2023-09-12T04:13:22;100751.00;;;25.50
63220;BMP180;49320;52.512;13.448;2023-09-12T04:15:50;100760.00;;;25.50
63220;BMP180;49320;52.512;13.448;2023-09-12T04:18:17;100760.00;;;25.50
63220;BMP180;49320;52.512;13.448;2023-09-12T04:20:45;100747.00;;;25.40
63220;BMP180;49320;52.512;13.448;2023-09-12T04:23:12;100753.00;;;25.40
63220;BMP180;49320;52.512;13.448;2023-09-12T04:25:42;100756.00;;;25.40
63220;BMP180;49320;52.512;13.448;2023-09-12T04:28:10;100756.00;;;25.40
63220;BMP180;49320;52.512;13.448;2023-09-12T04:30:37;100751.00;;;25.40
63220;BMP180;49320;52.512;13.448;2023-09-12T04:33:06;100754.00;;;25.40
63220;BMP180;49320;52.512;13.448;2023-09-12T04:35:34;100752.00;;;25.40
63220;BMP180;49320;52.512;13.448;2023-09-12T04:38:01;100762.00;;;25.40
63220;BMP180;49320;52.512;13.448;2023-09-12T04:40:28;100761.00;;;25.40
63220;BMP180;49320;52.512;13.448;2023-09-12T04:42:55;100760.00;;;25.40
63220;BMP180;49320;52.512;13.448;2023-09-12T04:45:22;100761.00;;;25.40
63220;BMP180;49320;52.512;13.448;2023-09-12T04:47:49;100766.00;;;25.40
63220;BMP180;49320;52.512;13.448;2023-09-12T04:50:17;100764.00;;;25.40
63220;BMP180;49320;52.512;13.448;2023-09-12T04:52:43;100752.00;;;25.40
63220;BMP180;49320;52.512;13.448;2023-09-12T04:55:11;100747.00;;;25.40
63220;BMP180;49320;52.512;13.448;2023-09-12T04:57:38;100752.00;;;25.40
63220;BMP180;49320;52.512;13.448;2023-09-12T05:00:09;100753.00;;;25.50
63220;BMP180;49320;52.512;13.448;2023-09-12T05:02:37;100760.00;;;25.50
63220;BMP180;49320;52.512;13.448;2023-09-12T05:05:05;100762.00;;;25.50
63220;BMP180;49320;52.512;13.448;2023-09-12T05:07:32;100756.00;;;25.50
63220;BMP180;49320;52.512;13.448;2023-09-12T05:09:59;100769.00;;;25.60
63220;BMP180;49320;52.512;13.448;2023-09-12T05:12:26;100761.00;;;25.60
63220;BMP180;49320;52.512;13.448;2023-09-12T05:14:53;100763.00;;;25.60
63220;BMP180;49320;52.512;13.448;2023-09-12T05:17:20;100765.00;;;25.70
63220;BMP180;49320;52.512;13.448;2023-09-12T05:19:47;100759.00;;;25.70
63220;BMP180;49320;52.512;13.448;2023-09-12T05:22:14;100764.00;;;25.80
63220;BMP180;49320;52.512;13.448;2023-09-12T05:24:41;100767.00;;;25.90
63220;BMP180;49320;52.512;13.448;2023-09-12T05:27:08;100764.00;;;25.90
63220;BMP180;49320;52.512;13.448;2023-09-12T05:29:35;100771.00;;;26.00
63220;BMP180;49320;52.512;13.448;2023-09-12T05:32:03;100773.00;;;26.00
63220;BMP180;49320;52.512;13.448;2023-09-12T05:34:30;100773.00;;;26.10
63220;BMP180;49320;52.512;13.448;2023-09-12T05:36:58;100772.00;;;26.20
63220;BMP180;49320;52.512;13.448;2023-09-12T05:39:24;100777.00;;;26.20
63220;BMP180;49320;52.512;13.448;2023-09-12T05:41:52;100778.00;;;26.30
63220;BMP180;49320;52.512;13.448;2023-09-12T05:44:19;100777.00;;;26.40
63220;BMP180;49320;52.512;13.448;2023-09-12T05:46:47;100784.00;;;26.40
63220;BMP180;49320;52.512;13.448;2023-09-12T05:49:15;100774.00;;;26.50
63220;BMP180;49320;52.512;13.448;2023-09-12T05:51:41;100771.00;;;26.60
63220;BMP180;49320;52.512;13.448;2023-09-12T05:54:10;100774.00;;;26.70
63220;BMP180;49320;52.512;13.448;2023-09-12T05:56:37;100773.00;;;26.70
63220;BMP180;49320;52.512;13.448;2023-09-12T05:59:05;100787.00;;;26.80
63220;BMP180;49320;52.512;13.448;2023-09-12T06:01:33;100778.00;;;26.90
63220;BMP180;49320;52.512;13.448;2023-09-12T06:04:04;100783.00;;;26.90
63220;BMP180;49320;52.512;13.448;2023-09-12T06:06:31;100788.00;;;27.00
63220;BMP180;49320;52.512;13.448;2023-09-12T06:08:59;100785.00;;;27.10
63220;BMP180;49320;52.512;13.448;2023-09-12T06:11:26;100789.00;;;27.10
63220;BMP180;49320;52.512;13.448;2023-09-12T06:13:53;100781.00;;;27.20
63220;BMP180;49320;52.512;13.448;2023-09-12T06:16:20;100792.00;;;27.30
63220;BMP180;49320;52.512;13.448;2023-09-12T06:18:47;100792.00;;;27.40
63220;BMP180;49320;52.512;13.448;2023-09-12T06:21:15;100790.00;;;27.40
63220;BMP180;49320;52.512;13.448;2023-09-12T06:23:42;100790.00;;;27.60
63220;BMP180;49320;52.512;13.448;2023-09-12T06:26:09;100790.00;;;27.60
63220;BMP180;49320;52.512;13.448;2023-09-12T06:28:36;100799.00;;;27.70
63220;BMP180;49320;52.512;13.448;2023-09-12T06:31:03;100797.00;;;27.80
63220;BMP180;49320;52.512;13.448;2023-09-12T06:33:30;100783.00;;;27.90
63220;BMP180;49320;52.512;13.448;2023-09-12T06:35:57;100788.00;;;28.00
63220;BMP180;49320;52.512;13.448;2023-09-12T06:38:24;100798.00;;;28.10
63220;BMP180;49320;52.512;13.448;2023-09-12T06:40:51;100794.00;;;28.20
63220;BMP180;49320;52.512;13.448;2023-09-12T06:43:19;100804.00;;;28.20
63220;BMP180;49320;52.512;13.448;2023-09-12T06:45:47;100801.00;;;28.30
63220;BMP180;49320;52.512;13.448;2023-09-12T06:48:15;100805.00;;;28.40
63220;BMP180;49320;52.512;13.448;2023-09-12T06:50:43;100805.00;;;28.50
63220;BMP180;49320;52.512;13.448;2023-09-12T06:53:15;100814.00;;;28.50
63220;BMP180;49320;52.512;13.448;2023-09-12T06:55:42;100824.00;;;28.60
63220;BMP180;49320;52.512;13.448;2023-09-12T06:58:09;100807.00;;;28.80
63220;BMP180;49320;52.512;13.448;2023-09-12T07:00:37;100813.00;;;28.90
63220;BMP180;49320;52.512;13.448;2023-09-12T07:03:04;100811.00;;;29.00
63220;BMP180;49320;52.512;13.448;2023-09-12T07:05:31;100815.00;;;29.00
63220;BMP180;49320;52.512;13.448;2023-09-12T07:07:58;100818.00;;;29.10
63220;BMP180;49320;52.512;13.448;2023-09-12T07:10:27;100816.00;;;29.20
63220;BMP180;49320;52.512;13.448;2023-09-12T07:12:54;100808.00;;;29.30
63220;BMP180;49320;52.512;13.448;2023-09-12T07:15:21;100820.00;;;29.30
63220;BMP180;49320;52.512;13.448;2023-09-12T07:17:48;100809.00;;;29.40
63220;BMP180;49320;52.512;13.448;2023-09-12T07:20:15;100819.00;;;29.50
63220;BMP180;49320;52.512;13.448;2023-09-12T07:22:44;100818.00;;;29.60
63220;BMP180;49320;52.512;13.448;2023-09-12T07:25:11;100816.00;;;29.70
63220;BMP180;49320;52.512;13.448;2023-09-12T07:27:39;100832.00;;;29.70
63220;BMP180;49320;52.512;13.448;2023-09-12T07:30:07;100814.00;;;29.80
63220;BMP180;49320;52.512;13.448;2023-09-12T07:32:35;100819.00;;;29.90
63220;BMP180;49320;52.512;13.448;2023-09-12T07:35:02;100818.00;;;30.00
63220;BMP180;49320;52.512;13.448;2023-09-12T07:37:29;100820.00;;;30.10
63220;BMP180;49320;52.512;13.448;2023-09-12T07:39:57;100812.00;;;30.20
63220;BMP180;49320;52.512;13.448;2023-09-12T07:42:24;100805.00;;;30.20
63220;BMP180;49320;52.512;13.448;2023-09-12T07:44:51;100806.00;;;30.30
63220;BMP180;49320;52.512;13.448;2023-09-12T07:47:19;100800.00;;;30.40
63220;BMP180;49320;52.512;13.448;2023-09-12T07:49:52;100810.00;;;30.50
63220;BMP180;49320;52.512;13.448;2023-09-12T07:52:19;100817.00;;;30.60
63220;BMP180;49320;52.512;13.448;2023-09-12T07:54:46;100801.00;;;30.60
63220;BMP180;49320;52.512;13.448;2023-09-12T07:57:13;100808.00;;;30.70
63220;BMP180;49320;52.512;13.448;2023-09-12T07:59:40;100807.00;;;30.80
63220;BMP180;49320;52.512;13.448;2023-09-12T08:02:07;100802.00;;;30.90
63220;BMP180;49320;52.512;13.448;2023-09-12T08:04:35;100794.00;;;31.00
63220;BMP180;49320;52.512;13.448;2023-09-12T08:07:02;100802.00;;;31.00
63220;BMP180;49320;52.512;13.448;2023-09-12T08:09:55;100823.00;;;31.10
63220;BMP180;49320;52.512;13.448;2023-09-12T08:12:25;100825.00;;;31.10
63220;BMP180;49320;52.512;13.448;2023-09-12T08:14:54;100829.00;;;31.20
63220;BMP180;49320;52.512;13.448;2023-09-12T08:17:22;100820.00;;;31.20
63220;BMP180;49320;52.512;13.448;2023-09-12T08:19:50;100825.00;;;31.30
63220;BMP180;49320;52.512;13.448;2023-09-12T08:22:17;100807.00;;;31.40
63220;BMP180;49320;52.512;13.448;2023-09-12T08:24:45;100815.00;;;31.40
63220;BMP180;49320;52.512;13.448;2023-09-12T08:27:13;100814.00;;;31.50
63220;BMP180;49320;52.512;13.448;2023-09-12T08:29:40;100817.00;;;31.60
63220;BMP180;49320;52.512;13.448;2023-09-12T08:32:09;100822.00;;;31.60
63220;BMP180;49320;52.512;13.448;2023-09-12T08:34:36;100826.00;;;31.70
63220;BMP180;49320;52.512;13.448;2023-09-12T08:37:03;100828.00;;;31.70
63220;BMP180;49320;52.512;13.448;2023-09-12T08:39:43;100818.00;;;31.80
63220;BMP180;49320;52.512;13.448;2023-09-12T08:42:16;100816.00;;;31.80
63220;BMP180;49320;52.512;13.448;2023-09-12T08:44:43;100811.00;;;31.90
63220;BMP180;49320;52.512;13.448;2023-09-12T08:47:11;100824.00;;;32.00
63220;BMP180;49320;52.512;13.448;2023-09-12T08:49:39;100825.00;;;32.00
63220;BMP180;49320;52.512;13.448;2023-09-12T08:52:09;100821.00;;;32.10
63220;BMP180;49320;52.512;13.448;2023-09-12T08:54:36;100823.00;;;32.10
63220;BMP180;49320;52.512;13.448;2023-09-12T08:57:05;100824.00;;;32.20
63220;BMP180;49320;52.512;13.448;2023-09-12T08:59:34;100818.00;;;32.30
63220;BMP180;49320;52.512;13.448;2023-09-12T09:02:01;100831.00;;;32.30
63220;BMP180;49320;52.512;13.448;2023-09-12T09:04:32;100828.00;;;32.40
63220;BMP180;49320;52.512;13.448;2023-09-12T09:07:00;100833.00;;;32.50
63220;BMP180;49320;52.512;13.448;2023-09-12T09:09:27;100831.00;;;32.50
63220;BMP180;49320;52.512;13.448;2023-09-12T09:11:55;100844.00;;;32.60
63220;BMP180;49320;52.512;13.448;2023-09-12T09:14:22;100844.00;;;32.60
63220;BMP180;49320;52.512;13.448;2023-09-12T09:16:52;100835.00;;;32.60
63220;BMP180;49320;52.512;13.448;2023-09-12T09:19:19;100839.00;;;32.70
63220;BMP180;49320;52.512;13.448;2023-09-12T09:21:47;100826.00;;;32.70
63220;BMP180;49320;52.512;13.448;2023-09-12T09:24:17;100844.00;;;32.80
63220;BMP180;49320;52.512;13.448;2023-09-12T09:26:49;100848.00;;;32.90
63220;BMP180;49320;52.512;13.448;2023-09-12T09:29:21;100850.00;;;32.90
63220;BMP180;49320;52.512;13.448;2023-09-12T09:31:50;100854.00;;;33.00
63220;BMP180;49320;52.512;13.448;2023-09-12T09:34:20;100858.00;;;33.10
63220;BMP180;49320;52.512;13.448;2023-09-12T09:36:53;100858.00;;;33.10
63220;BMP180;49320;52.512;13.448;2023-09-12T09:39:23;100865.00;;;33.10
63220;BMP180;49320;52.512;13.448;2023-09-12T09:41:53;100870.00;;;33.10
63220;BMP180;49320;52.512;13.448;2023-09-12T09:44:26;100863.00;;;33.20
63220;BMP180;49320;52.512;13.448;2023-09-12T09:47:00;100864.00;;;33.20
63220;BMP180;49320;52.512;13.448;2023-09-12T09:49:32;100868.00;;;33.20
63220;BMP180;49320;52.512;13.448;2023-09-12T09:52:06;100865.00;;;33.10
63220;BMP180;49320;52.512;13.448;2023-09-12T09:54:33;100861.00;;;33.00
63220;BMP180;49320;52.512;13.448;2023-09-12T09:57:01;100867.00;;;33.00
63220;BMP180;49320;52.512;13.448;2023-09-12T09:59:28;100864.00;;;33.00
63220;BMP180;49320;52.512;13.448;2023-09-12T10:01:59;100869.00;;;33.00
63220;BMP180;49320;52.512;13.448;2023-09-12T10:04:32;100859.00;;;33.00
63220;BMP180;49320;52.512;13.448;2023-09-12T10:07:12;100857.00;;;33.00
63220;BMP180;49320;52.512;13.448;2023-09-12T10:09:40;100857.00;;;33.10
63220;BMP180;49320;52.512;13.448;2023-09-12T10:12:08;100856.00;;;33.10
63220;BMP180;49320;52.512;13.448;2023-09-12T10:14:37;100867.00;;;33.10
63220;BMP180;49320;52.512;13.448;2023-09-12T10:17:05;100858.00;;;33.00
63220;BMP180;49320;52.512;13.448;2023-09-12T10:19:50;100852.00;;;33.00
63220;BMP180;49320;52.512;13.448;2023-09-12T10:22:26;100847.00;;;33.00
63220;BMP180;49320;52.512;13.448;2023-09-12T10:24:57;100843.00;;;32.90
63220;BMP180;49320;52.512;13.448;2023-09-12T10:27:26;100838.00;;;32.90
63220;BMP180;49320;52.512;13.448;2023-09-12T10:29:53;100837.00;;;32.90
63220;BMP180;49320;52.512;13.448;2023-09-12T10:32:22;100829.00;;;33.00
63220;BMP180;49320;52.512;13.448;2023-09-12T10:34:49;100834.00;;;33.00
63220;BMP180;49320;52.512;13.448;2023-09-12T10:37:22;100824.00;;;33.10
63220;BMP180;49320;52.512;13.448;2023-09-12T10:39:49;100821.00;;;33.10
63220;BMP180;49320;52.512;13.448;2023-09-12T10:42:20;100812.00;;;33.20
63220;BMP180;49320;52.512;13.448;2023-09-12T10:44:51;100821.00;;;33.20
63220;BMP180;49320;52.512;13.448;2023-09-12T10:47:18;100820.00;;;33.30
63220;BMP180;49320;52.512;13.448;2023-09-12T10:49:46;100821.00;;;33.30
63220;BMP180;49320;52.512;13.448;2023-09-12T10:52:29;100823.00;;;33.40
63220;BMP180;49320;52.512;13.448;2023-09-12T10:54:56;100821.00;;;33.40
63220;BMP180;49320;52.512;13.448;2023-09-12T10:57:23;100824.00;;;33.40
63220;BMP180;49320;52.512;13.448;2023-09-12T11:02:36;100820.00;;;33.60
63220;BMP180;49320;52.512;13.448;2023-09-12T11:05:06;100822.00;;;33.60
63220;BMP180;49320;52.512;13.448;2023-09-12T11:12:43;100816.00;;;33.70
63220;BMP180;49320;52.512;13.448;2023-09-12T11:15:10;100815.00;;;33.80
63220;BMP180;49320;52.512;13.448;2023-09-12T11:17:39;100818.00;;;33.80
63220;BMP180;49320;52.512;13.448;2023-09-12T11:20:07;100811.00;;;33.80
63220;BMP180;49320;52.512;13.448;2023-09-12T11:22:47;100809.00;;;33.90
63220;BMP180;49320;52.512;13.448;2023-09-12T11:25:26;100809.00;;;33.90
63220;BMP180;49320;52.512;13.448;2023-09-12T11:30:23;100810.00;;;34.00
63220;BMP180;49320;52.512;13.448;2023-09-12T11:32:53;100801.00;;;34.10
63220;BMP180;49320;52.512;13.448;2023-09-12T11:35:29;100809.00;;;34.20
63220;BMP180;49320;52.512;13.448;2023-09-12T11:37:59;100811.00;;;34.30
63220;BMP180;49320;52.512;13.448;2023-09-12T11:43:01;100809.00;;;34.30
63220;BMP180;49320;52.512;13.448;2023-09-12T11:45:28;100800.00;;;34.40
63220;BMP180;49320;52.512;13.448;2023-09-12T11:47:56;100807.00;;;34.40
63220;BMP180;49320;52.512;13.448;2023-09-12T11:50:41;100802.00;;;34.50
63220;BMP180;49320;52.512;13.448;2023-09-12T11:53:11;100803.00;;;34.50
63220;BMP180;49320;52.512;13.448;2023-09-12T11:55:44;100808.00;;;34.60
63220;BMP180;49320;52.512;13.448;2023-09-12T11:58:15;100815.00;;;34.50
63220;BMP180;49320;52.512;13.448;2023-09-12T12:00:53;100809.00;;;34.50
63220;BMP180;49320;52.512;13.448;2023-09-12T12:03:23;100805.00;;;34.50
63220;BMP180;49320;52.512;13.448;2023-09-12T12:05:51;100799.00;;;34.50
63220;BMP180;49320;52.512;13.448;2023-09-12T12:08:18;100798.00;;;34.50
63220;BMP180;49320;52.512;13.448;2023-09-12T12:10:52;100808.00;;;34.60
63220;BMP180;49320;52.512;13.448;2023-09-12T12:13:21;100806.00;;;34.60
63220;BMP180;49320;52.512;13.448;2023-09-12T12:15:48;100808.00;;;34.60
63220;BMP180;49320;52.512;13.448;2023-09-12T12:18:16;100801.00;;;34.60
63220;BMP180;49320;52.512;13.448;2023-09-12T12:20:43;100806.00;;;34.60
63220;BMP180;49320;52.512;13.448;2023-09-12T12:23:11;100795.00;;;34.70
63220;BMP180;49320;52.512;13.448;2023-09-12T12:25:39;100804.00;;;34.70
63220;BMP180;49320;52.512;13.448;2023-09-12T12:28:07;100805.00;;;34.70
63220;BMP180;49320;52.512;13.448;2023-09-12T12:30:35;100811.00;;;34.70
63220;BMP180;49320;52.512;13.448;2023-09-12T12:33:09;100811.00;;;34.70
63220;BMP180;49320;52.512;13.448;2023-09-12T12:36:01;100806.00;;;34.80
63220;BMP180;49320;52.512;13.448;2023-09-12T12:38:36;100800.00;;;34.80
63220;BMP180;49320;52.512;13.448;2023-09-12T12:41:11;100798.00;;;34.80
63220;BMP180;49320;52.512;13.448;2023-09-12T12:43:40;100796.00;;;34.80
63220;BMP180;49320;52.512;13.448;2023-09-12T12:46:12;100794.00;;;34.80
63220;BMP180;49320;52.512;13.448;2023-09-12T12:48:43;100793.00;;;34.90
63220;BMP180;49320;52.512;13.448;2023-09-12T12:51:24;100791.00;;;34.90
63220;BMP180;49320;52.512;13.448;2023-09-12T12:54:04;100796.00;;;34.90
63220;BMP180;49320;52.512;13.448;2023-09-12T12:56:32;100792.00;;;34.90
63220;BMP180;49320;52.512;13.448;2023-09-12T12:59:00;100784.00;;;34.90
63220;BMP180;49320;52.512;13.448;2023-09-12T13:01:30;100784.00;;;34.90
63220;BMP180;49320;52.512;13.448;2023-09-12T13:03:57;100787.00;;;34.90
63220;BMP180;49320;52.512;13.448;2023-09-12T13:06:24;100788.00;;;34.90
63220;BMP180;49320;52.512;13.448;2023-09-12T13:08:53;100784.00;;;35.00
63220;BMP180;49320;52.512;13.448;2023-09-12T13:11:20;100778.00;;;35.00
63220;BMP180;49320;52.512;13.448;2023-09-12T13:13:49;100770.00;;;35.00
63220;BMP180;49320;52.512;13.448;2023-09-12T13:16:16;100775.00;;;35.00
63220;BMP180;49320;52.512;13.448;2023-09-12T13:18:44;100770.00;;;35.00
63220;BMP180;49320;52.512;13.448;2023-09-12T13:21:11;100755.00;;;35.10
63220;BMP180;49320;52.512;13.448;2023-09-12T13:23:38;100760.00;;;35.10
63220;BMP180;49320;52.512;13.448;2023-09-12T13:26:09;100760.00;;;35.10
63220;BMP180;49320;52.512;13.448;2023-09-12T13:28:36;100763.00;;;35.20
63220;BMP180;49320;52.512;13.448;2023-09-12T13:31:04;100759.00;;;35.20
63220;BMP180;49320;52.512;13.448;2023-09-12T13:33:31;100754.00;;;35.30
63220;BMP180;49320;52.512;13.448;2023-09-12T13:36:04;100761.00;;;35.30
63220;BMP180;49320;52.512;13.448;2023-09-12T13:38:31;100754.00;;;35.40
63220;BMP180;49320;52.512;13.448;2023-09-12T13:40:59;100758.00;;;35.40
63220;BMP180;49320;52.512;13.448;2023-09-12T13:43:26;100761.00;;;35.40
63220;BMP180;49320;52.512;13.448;2023-09-12T13:45:55;100747.00;;;35.40
63220;BMP180;49320;52.512;13.448;2023-09-12T13:48:22;100748.00;;;35.50
63220;BMP180;49320;52.512;13.448;2023-09-12T13:50:49;100736.00;;;35.50
63220;BMP180;49320;52.512;13.448;2023-09-12T13:53:16;100749.00;;;35.50
63220;BMP180;49320;52.512;13.448;2023-09-12T13:55:43;100752.00;;;35.50
63220;BMP180;49320;52.512;13.448;2023-09-12T13:58:30;100750.00;;;35.50
63220;BMP180;49320;52.512;13.448;2023-09-12T14:01:13;100749.00;;;35.50
63220;BMP180;49320;52.512;13.448;2023-09-12T14:03:53;100749.00;;;35.50
63220;BMP180;49320;52.512;13.448;2023-09-12T14:06:21;100761.00;;;35.50
63220;BMP180;49320;52.512;13.448;2023-09-12T14:08:49;100756.00;;;35.50